createdAt,value
2022-10-28T00:01:26.606Z,2.97
2022-10-28T00:04:00.919Z,3.30
2022-10-28T00:06:35.083Z,2.83
2022-10-28T00:09:11.274Z,2.90
2022-10-28T00:11:44.664Z,3.03
2022-10-28T00:14:16.973Z,3.28
2022-10-28T00:16:49.536Z,3.00
2022-10-28T00:19:21.829Z,3.40
2022-10-28T00:21:54.121Z,3.92
2022-10-28T00:24:27.132Z,3.28
2022-10-28T00:26:59.517Z,3.33
2022-10-28T00:29:31.934Z,3.40
2022-10-28T00:32:04.692Z,2.70
2022-10-28T00:34:37.996Z,2.92
2022-10-28T00:37:10.303Z,2.53
2022-10-28T00:39:43.229Z,2.90
2022-10-28T00:42:20.000Z,2.95
2022-10-28T00:44:55.770Z,2.28
2022-10-28T00:47:43.914Z,2.90
2022-10-28T00:50:30.329Z,3.63
2022-10-28T00:53:06.342Z,3.28
2022-10-28T00:55:39.903Z,3.70
2022-10-28T00:58:12.902Z,3.38
2022-10-28T01:00:45.226Z,4.60
2022-10-28T01:03:17.995Z,4.20
2022-10-28T01:05:51.463Z,4.07
2022-10-28T01:08:23.854Z,3.67
2022-10-28T01:11:31.314Z,2.22
2022-10-28T01:14:17.518Z,2.60
2022-10-28T01:17:08.799Z,2.67
2022-10-28T01:20:21.427Z,1.83
2022-10-28T01:23:00.791Z,1.67
2022-10-28T01:25:59.052Z,1.80
2022-10-28T01:28:53.663Z,1.73
2022-10-28T01:31:36.107Z,1.38
2022-10-28T01:34:17.482Z,1.83
2022-10-28T01:36:59.339Z,1.60
2022-10-28T01:39:37.786Z,1.80
2022-10-28T01:42:19.703Z,2.25
2022-10-28T01:45:01.088Z,1.40
2022-10-28T01:47:40.621Z,1.88
2022-10-28T01:50:24.024Z,2.05
2022-10-28T01:53:00.035Z,1.65
2022-10-28T01:55:37.344Z,1.70
2022-10-28T01:58:13.233Z,1.70
2022-10-28T02:00:46.965Z,1.90
2022-10-28T02:03:20.304Z,1.67
2022-10-28T02:05:55.057Z,1.38
2022-10-28T02:08:49.373Z,2.25
2022-10-28T02:11:53.670Z,1.73
2022-10-28T02:14:40.343Z,2.20
2022-10-28T02:17:20.841Z,1.88
2022-10-28T02:20:06.370Z,2.58
2022-10-28T02:22:49.047Z,1.52
2022-10-28T02:25:25.648Z,2.00
2022-10-28T02:28:01.849Z,1.98
2022-10-28T02:30:43.283Z,1.80
2022-10-28T02:33:19.314Z,1.60
2022-10-28T02:35:55.851Z,1.95
2022-10-28T02:38:33.771Z,2.20
2022-10-28T02:41:13.589Z,2.13
2022-10-28T02:46:21.238Z,1.85
2022-10-28T02:48:56.512Z,1.77
2022-10-28T02:51:34.334Z,2.25
2022-10-28T02:54:10.585Z,2.58
2022-10-28T02:56:51.215Z,3.35
2022-10-28T02:59:25.222Z,1.90
2022-10-28T03:01:57.646Z,2.95
2022-10-28T03:04:30.131Z,2.65
2022-10-28T03:07:03.110Z,2.13
2022-10-28T03:09:35.392Z,12.57
2022-10-28T03:12:07.853Z,3.60
2022-10-28T03:14:40.163Z,2.10
2022-10-28T03:17:12.479Z,2.08
2022-10-28T03:19:44.746Z,2.55
2022-10-28T03:22:17.749Z,2.40
2022-10-28T03:24:50.106Z,2.65
2022-10-28T03:27:22.357Z,2.13
2022-10-28T03:29:54.710Z,2.35
2022-10-28T03:32:27.065Z,2.13
2022-10-28T03:34:59.319Z,1.70
2022-10-28T03:37:32.315Z,2.00
2022-10-28T03:40:07.226Z,2.33
2022-10-28T03:42:41.257Z,2.10
2022-10-28T03:45:13.754Z,2.60
2022-10-28T03:47:47.411Z,2.67
2022-10-28T03:50:19.702Z,3.13
2022-10-28T03:52:52.736Z,2.95
2022-10-28T03:55:25.226Z,3.08
2022-10-28T03:58:00.112Z,3.88
2022-10-28T04:00:32.413Z,3.42
2022-10-28T04:03:04.703Z,3.30
2022-10-28T04:05:37.015Z,3.38
2022-10-28T04:08:10.238Z,3.22
2022-10-28T04:10:47.150Z,3.03
2022-10-28T04:13:19.872Z,3.20
2022-10-28T04:15:52.170Z,3.50
2022-10-28T04:18:24.510Z,3.17
2022-10-28T04:20:56.819Z,2.55
2022-10-28T04:23:29.860Z,2.08
2022-10-28T04:26:02.134Z,2.42
2022-10-28T04:28:34.502Z,2.88
2022-10-28T04:31:06.921Z,3.03
2022-10-28T04:33:39.217Z,2.25
2022-10-28T04:36:11.486Z,2.40
2022-10-28T04:38:44.474Z,2.80
2022-10-28T04:41:16.911Z,3.50
2022-10-28T04:43:49.211Z,3.10
2022-10-28T04:46:21.601Z,3.40
2022-10-28T04:48:53.855Z,4.20
2022-10-28T04:51:26.182Z,4.38
2022-10-28T04:53:59.149Z,4.18
2022-10-28T04:56:32.605Z,4.22
2022-10-28T04:59:05.067Z,4.57
2022-10-28T05:01:37.844Z,3.70
2022-10-28T05:04:10.267Z,5.10
2022-10-28T05:06:42.766Z,4.18
2022-10-28T05:09:15.783Z,3.80
2022-10-28T05:11:48.052Z,4.38
2022-10-28T05:14:20.383Z,4.38
2022-10-28T05:16:52.673Z,5.03
2022-10-28T05:19:25.037Z,10.07
2022-10-28T05:21:57.325Z,4.38
2022-10-28T05:24:30.298Z,3.70
2022-10-28T05:27:02.611Z,3.78
2022-10-28T05:29:34.881Z,3.95
2022-10-28T05:32:07.237Z,5.05
2022-10-28T05:34:39.602Z,3.10
2022-10-28T05:37:11.951Z,5.00
2022-10-28T05:39:44.968Z,4.35
2022-10-28T05:42:17.281Z,4.40
2022-10-28T05:44:49.587Z,3.70
2022-10-28T05:47:21.928Z,4.40
2022-10-28T05:49:54.303Z,5.00
2022-10-28T05:52:26.645Z,4.93
2022-10-28T05:54:59.693Z,4.70
2022-10-28T05:57:33.764Z,5.05
2022-10-28T06:00:07.424Z,5.30
2022-10-28T06:02:44.811Z,4.47
2022-10-28T06:05:17.573Z,5.57
2022-10-28T06:07:49.887Z,4.88
2022-10-28T06:10:22.913Z,4.70
2022-10-28T06:12:54.145Z,5.28
2022-10-28T06:15:26.740Z,5.10
2022-10-28T06:17:59.043Z,4.32
2022-10-28T06:20:31.379Z,4.15
2022-10-28T06:23:03.675Z,3.50
2022-10-28T06:25:36.794Z,3.67
2022-10-28T06:28:10.431Z,5.07
2022-10-28T06:30:42.928Z,4.45
2022-10-28T06:33:15.243Z,2.60
2022-10-28T06:35:47.542Z,2.40
2022-10-28T06:38:19.834Z,3.03
2022-10-28T06:40:52.990Z,2.65
2022-10-28T06:43:25.345Z,2.67
2022-10-28T06:46:00.116Z,2.90
2022-10-28T06:48:33.961Z,2.92
2022-10-28T06:51:06.302Z,2.92
2022-10-28T06:53:38.654Z,3.38
2022-10-28T07:00:09.702Z,2.65
2022-10-28T07:02:45.087Z,3.00
2022-10-28T07:05:17.722Z,3.22
2022-10-28T07:07:50.143Z,3.25
2022-10-28T07:10:22.433Z,3.58
2022-10-28T07:12:54.946Z,2.88
2022-10-28T07:15:28.173Z,3.30
2022-10-28T07:18:01.214Z,3.10
2022-10-28T07:20:33.530Z,3.30
2022-10-28T07:23:05.832Z,3.78
2022-10-28T07:25:38.314Z,3.70
2022-10-28T07:28:10.844Z,4.75
2022-10-28T07:30:43.870Z,3.53
2022-10-28T07:33:16.344Z,4.03
2022-10-28T07:35:48.736Z,3.67
2022-10-28T07:38:21.827Z,4.45
2022-10-28T07:40:54.193Z,3.75
2022-10-28T07:43:26.556Z,4.70
2022-10-28T07:46:00.008Z,4.40
2022-10-28T07:48:32.513Z,5.10
2022-10-28T07:51:07.092Z,6.30
2022-10-28T07:53:39.765Z,6.05
2022-10-28T07:56:13.229Z,5.35
2022-10-28T07:58:45.570Z,5.88
2022-10-28T08:01:20.767Z,4.90
2022-10-28T08:03:53.291Z,5.30
2022-10-28T08:06:25.732Z,5.95
2022-10-28T08:08:58.410Z,6.00
2022-10-28T08:11:30.782Z,4.90
2022-10-28T08:14:03.463Z,5.50
2022-10-28T08:16:36.430Z,5.72
2022-10-28T08:19:10.697Z,6.60
2022-10-28T08:21:43.033Z,6.13
2022-10-28T08:24:15.551Z,5.10
2022-10-28T08:26:47.876Z,5.78
2022-10-28T08:29:20.218Z,5.85
2022-10-28T08:31:53.214Z,5.93
2022-10-28T08:34:28.684Z,5.18
2022-10-28T08:37:01.109Z,5.25
2022-10-28T08:39:33.454Z,5.65
2022-10-28T08:42:23.325Z,5.72
2022-10-28T08:45:17.304Z,6.57
2022-10-28T08:48:11.418Z,5.72
2022-10-28T08:50:48.963Z,5.82
2022-10-28T08:53:26.630Z,5.90
2022-10-28T08:56:09.802Z,5.75
2022-10-28T08:58:44.857Z,5.95
2022-10-28T09:01:30.466Z,7.20
2022-10-28T09:04:12.464Z,6.65
2022-10-28T09:06:44.832Z,6.35
2022-10-28T09:09:19.986Z,7.22
2022-10-28T09:12:05.053Z,7.18
2022-10-28T09:14:52.250Z,7.05
2022-10-28T09:17:32.807Z,8.05
2022-10-28T09:20:18.110Z,7.13
2022-10-28T09:22:56.480Z,7.40
2022-10-28T09:25:38.746Z,7.00
2022-10-28T09:28:26.994Z,7.13
2022-10-28T09:31:08.158Z,7.03
2022-10-28T09:33:55.498Z,8.10
2022-10-28T09:36:32.689Z,7.13
2022-10-28T09:39:06.206Z,7.13
2022-10-28T09:41:41.174Z,8.77
2022-10-28T09:44:18.700Z,7.63
2022-10-28T09:46:54.769Z,9.07
2022-10-28T09:49:33.071Z,8.02
2022-10-28T09:52:16.123Z,8.45
2022-10-28T09:54:50.708Z,6.85
2022-10-28T09:57:30.575Z,6.78
2022-10-28T10:00:03.412Z,6.38
2022-10-28T10:02:42.609Z,6.60
2022-10-28T10:05:18.288Z,7.18
2022-10-28T10:07:55.940Z,6.68
2022-10-28T10:10:34.169Z,5.88
2022-10-28T10:13:08.804Z,5.20
2022-10-28T10:15:45.032Z,6.20
2022-10-28T10:18:22.321Z,5.32
2022-10-28T10:20:57.849Z,6.35
2022-10-28T10:23:32.865Z,5.28
2022-10-28T10:26:11.295Z,4.68
2022-10-28T10:31:21.020Z,5.70
2022-10-28T10:33:55.659Z,6.18
2022-10-28T10:36:30.646Z,5.78
2022-10-28T10:39:03.896Z,6.28
2022-10-28T10:41:37.929Z,6.53
2022-10-28T10:44:32.191Z,5.80
2022-10-28T10:47:20.327Z,4.90
2022-10-28T10:49:54.320Z,5.07
2022-10-28T10:52:27.722Z,5.53
2022-10-28T10:55:04.818Z,6.82
2022-10-28T10:57:37.218Z,5.40
2022-10-28T11:00:16.786Z,5.97
2022-10-28T11:05:35.595Z,5.45
2022-10-28T11:08:37.016Z,6.03
2022-10-28T11:11:13.712Z,4.13
2022-10-28T11:13:47.087Z,4.47
2022-10-28T11:16:21.620Z,4.45
2022-10-28T11:18:54.041Z,4.28
2022-10-28T11:21:48.483Z,4.57
2022-10-28T11:24:39.640Z,3.78
2022-10-28T11:27:25.455Z,4.13
2022-10-28T11:30:00.217Z,3.47
2022-10-28T11:33:01.899Z,3.72
2022-10-28T11:35:57.961Z,3.13
2022-10-28T11:38:54.042Z,3.10
2022-10-28T11:41:37.189Z,2.78
2022-10-28T11:44:23.641Z,2.40
2022-10-28T11:47:09.483Z,2.85
2022-10-28T11:50:17.756Z,2.55
2022-10-28T11:53:10.364Z,2.33
2022-10-28T11:55:47.939Z,2.15
2022-10-28T11:58:32.192Z,1.65
2022-10-28T12:01:20.559Z,2.17
2022-10-28T12:04:20.288Z,2.03
2022-10-28T12:07:13.119Z,1.83
2022-10-28T12:09:57.408Z,3.00
2022-10-28T12:12:41.116Z,1.42
2022-10-28T12:15:21.533Z,2.03
2022-10-28T12:18:00.318Z,1.70
2022-10-28T12:20:38.729Z,1.73
2022-10-28T12:23:13.882Z,1.83
2022-10-28T12:25:49.485Z,1.40
2022-10-28T12:28:27.584Z,1.50
2022-10-28T12:31:01.901Z,1.70
2022-10-28T12:33:39.862Z,2.40
2022-10-28T12:36:28.521Z,2.05
2022-10-28T12:39:09.189Z,2.28
2022-10-28T12:41:49.931Z,1.60
2022-10-28T12:44:24.331Z,2.10
2022-10-28T12:47:19.005Z,1.98
2022-10-28T12:50:02.274Z,2.00
2022-10-28T12:52:41.560Z,1.73
2022-10-28T12:55:25.419Z,2.22
2022-10-28T12:58:02.226Z,2.03
2022-10-28T13:00:37.384Z,2.17
2022-10-28T13:03:12.814Z,1.83
2022-10-28T13:05:51.477Z,2.60
2022-10-28T13:09:07.162Z,1.83
2022-10-28T13:12:23.373Z,3.05
2022-10-28T13:15:20.532Z,2.15
2022-10-28T13:18:10.620Z,3.08
2022-10-28T13:20:52.998Z,4.07
2022-10-28T13:23:35.992Z,3.13
2022-10-28T13:26:21.345Z,2.80
2022-10-28T13:28:56.468Z,2.47
2022-10-28T13:31:40.616Z,4.05
2022-10-28T13:34:14.715Z,2.30
2022-10-28T13:36:57.651Z,2.65
2022-10-28T13:39:43.214Z,2.70
2022-10-28T13:42:45.271Z,2.65
2022-10-28T13:45:47.717Z,1.80
2022-10-28T13:48:53.102Z,2.17
2022-10-28T13:51:45.261Z,2.30
2022-10-28T13:54:26.852Z,2.40
2022-10-28T13:57:12.154Z,2.20
2022-10-28T13:59:52.128Z,2.42
2022-10-28T14:02:34.984Z,2.20
2022-10-28T14:05:10.161Z,2.90
2022-10-28T14:07:53.224Z,2.80
2022-10-28T14:10:28.303Z,2.33
2022-10-28T14:13:03.430Z,2.55
2022-10-28T14:15:38.105Z,2.22
2022-10-28T14:18:43.445Z,2.50
2022-10-28T14:21:15.879Z,2.10
2022-10-28T14:24:30.407Z,2.00
2022-10-28T14:27:31.229Z,2.10
2022-10-28T14:30:21.825Z,3.05
2022-10-28T14:33:16.411Z,2.35
2022-10-28T14:36:00.880Z,2.70
2022-10-28T14:39:20.627Z,1.98
2022-10-28T14:42:09.008Z,1.88
2022-10-28T14:44:59.344Z,2.53
2022-10-28T14:47:55.734Z,2.05
2022-10-28T14:50:37.868Z,2.17
2022-10-28T14:53:18.311Z,2.38
2022-10-28T14:55:58.792Z,2.85
2022-10-28T14:58:37.235Z,2.20
2022-10-28T15:01:26.145Z,2.30
2022-10-28T15:04:01.453Z,2.60
2022-10-28T15:06:40.320Z,2.22
2022-10-28T15:09:19.356Z,2.85
2022-10-28T15:11:55.425Z,2.47
2022-10-28T15:14:30.905Z,2.30
2022-10-28T15:17:12.189Z,1.92
2022-10-28T15:19:45.741Z,2.10
2022-10-28T15:22:20.958Z,2.08
2022-10-28T15:24:58.448Z,2.20
2022-10-28T15:27:32.810Z,2.20
2022-10-28T15:30:14.360Z,2.40
2022-10-28T15:32:47.435Z,2.45
2022-10-28T15:35:39.160Z,2.30
2022-10-28T15:38:42.030Z,4.35
2022-10-28T15:41:41.412Z,2.65
2022-10-28T15:44:27.030Z,2.53
2022-10-28T15:47:02.026Z,2.47
2022-10-28T15:49:38.063Z,3.75
2022-10-28T15:52:32.688Z,3.42
2022-10-28T15:55:35.652Z,2.92
2022-10-28T15:58:33.317Z,3.70
2022-10-28T16:01:09.410Z,22.02
2022-10-28T16:03:44.285Z,5.55
2022-10-28T16:06:26.585Z,5.55
2022-10-28T16:09:06.015Z,5.90
2022-10-28T16:11:42.300Z,9.57
2022-10-28T16:14:32.197Z,8.95
2022-10-28T16:17:14.530Z,6.07
2022-10-28T16:19:53.153Z,2.60
2022-10-28T16:22:28.822Z,2.78
2022-10-28T16:25:01.288Z,2.28
2022-10-28T16:27:33.616Z,2.25
2022-10-28T16:30:06.900Z,2.50
2022-10-28T16:32:41.301Z,2.60
2022-10-28T16:35:15.565Z,2.20
2022-10-28T16:37:54.645Z,3.30
2022-10-28T16:43:22.405Z,2.45
2022-10-28T16:45:56.594Z,2.42
2022-10-28T16:48:30.275Z,2.33
2022-10-28T16:51:05.701Z,2.47
2022-10-28T16:53:38.691Z,1.90
2022-10-28T16:56:13.888Z,1.83
2022-10-28T16:58:48.049Z,2.45
2022-10-28T17:01:21.865Z,1.88
2022-10-28T17:03:54.185Z,2.20
2022-10-28T17:06:26.518Z,2.30
2022-10-28T17:09:03.765Z,2.08
2022-10-28T17:11:36.436Z,2.00
2022-10-28T17:14:08.751Z,2.20
2022-10-28T17:16:43.301Z,2.75
2022-10-28T17:19:16.058Z,1.80
2022-10-28T17:21:48.342Z,3.05
2022-10-28T17:24:21.562Z,2.70
2022-10-28T17:26:53.898Z,2.40
2022-10-28T17:29:26.325Z,1.27
2022-10-28T17:31:58.660Z,2.80
2022-10-28T17:34:30.957Z,1.75
2022-10-28T17:37:04.078Z,1.75
2022-10-28T17:39:37.445Z,1.73
2022-10-28T17:42:09.841Z,2.25
2022-10-28T17:44:42.192Z,2.35
2022-10-28T17:47:14.525Z,1.80
2022-10-28T17:49:46.847Z,3.92
2022-10-28T17:52:19.224Z,2.95
2022-10-28T17:54:52.658Z,2.28
2022-10-28T17:57:25.030Z,2.75
2022-10-28T17:59:57.428Z,3.28
2022-10-28T18:02:29.816Z,3.30
2022-10-28T18:05:02.332Z,3.65
2022-10-28T18:07:34.960Z,4.03
2022-10-28T18:10:09.397Z,2.65
2022-10-28T18:12:41.844Z,2.38
2022-10-28T18:15:14.193Z,2.70
2022-10-28T18:17:49.041Z,2.47
2022-10-28T18:20:21.340Z,2.50
2022-10-28T18:22:53.879Z,3.03
2022-10-28T18:25:27.064Z,2.20
2022-10-28T18:27:59.443Z,2.35
2022-10-28T18:30:32.108Z,1.92
2022-10-28T18:33:04.432Z,6.18
2022-10-28T18:35:36.809Z,3.75
2022-10-28T18:38:09.240Z,7.13
2022-10-28T18:40:46.430Z,3.25
2022-10-28T18:43:20.953Z,2.35
2022-10-28T18:45:53.534Z,3.67
2022-10-28T18:48:25.911Z,4.05
2022-10-28T18:51:00.258Z,3.92
2022-10-28T18:53:35.258Z,3.10
2022-10-28T18:56:11.185Z,4.80
2022-10-28T18:58:43.824Z,6.03
2022-10-28T19:01:18.161Z,12.50
2022-10-28T19:03:52.776Z,12.38
2022-10-28T19:06:29.044Z,19.27
2022-10-28T19:09:03.743Z,31.50
2022-10-28T19:11:36.856Z,22.23
2022-10-28T19:14:09.629Z,13.50
2022-10-28T19:16:41.969Z,12.77
2022-10-28T19:19:14.325Z,15.10
2022-10-28T19:21:46.719Z,13.32
2022-10-28T19:24:19.221Z,13.75
2022-10-28T19:26:52.247Z,13.05
2022-10-28T19:29:24.637Z,11.27
2022-10-28T19:31:56.945Z,10.98
2022-10-28T19:34:29.498Z,10.05
2022-10-28T19:37:01.891Z,10.50
2022-10-28T19:39:34.353Z,10.13
2022-10-28T19:42:07.388Z,9.60
2022-10-28T19:44:39.803Z,12.25
2022-10-28T19:47:12.161Z,13.85
2022-10-28T19:49:44.610Z,13.20
2022-10-28T19:52:17.035Z,14.25
2022-10-28T19:54:49.357Z,12.15
2022-10-28T19:57:22.329Z,13.57
2022-10-28T19:59:54.582Z,12.65
2022-10-28T20:02:26.988Z,12.38
2022-10-28T20:04:59.452Z,16.15
2022-10-28T20:07:31.816Z,14.70
2022-10-28T20:10:04.765Z,14.55
2022-10-28T20:12:37.797Z,14.20
2022-10-28T20:15:10.512Z,15.23
2022-10-28T20:17:42.848Z,12.93
2022-10-28T20:20:15.227Z,13.23
2022-10-28T20:22:47.523Z,13.45
2022-10-28T20:25:19.834Z,13.93
2022-10-28T20:27:53.175Z,12.35
2022-10-28T20:30:25.746Z,13.00
2022-10-28T20:32:58.029Z,10.63
2022-10-28T20:35:33.196Z,11.68
2022-10-28T20:40:47.601Z,8.52
2022-10-28T20:43:21.921Z,9.05
2022-10-28T20:45:55.833Z,7.93
2022-10-28T20:48:29.484Z,15.20
2022-10-28T20:51:02.280Z,10.90
2022-10-28T20:53:34.928Z,9.70
2022-10-28T20:56:08.002Z,8.68
2022-10-28T20:58:40.981Z,8.88
2022-10-28T21:01:15.909Z,8.98
2022-10-28T21:03:49.258Z,9.27
2022-10-28T21:06:22.453Z,8.57
2022-10-28T21:08:55.875Z,15.27
2022-10-28T21:11:28.719Z,10.38
2022-10-28T21:14:02.088Z,9.82
2022-10-28T21:16:34.448Z,8.90
2022-10-28T21:19:06.766Z,7.35
2022-10-28T21:21:39.012Z,5.45
2022-10-28T21:24:11.420Z,5.63
2022-10-28T21:26:47.126Z,5.60
2022-10-28T21:29:21.407Z,5.40
2022-10-28T21:31:53.712Z,7.22
2022-10-28T21:34:26.021Z,6.65
2022-10-28T21:36:58.308Z,7.32
2022-10-28T21:39:30.590Z,6.43
2022-10-28T21:42:02.948Z,6.30
2022-10-28T21:44:35.897Z,6.15
2022-10-28T21:47:08.199Z,5.95
2022-10-28T21:49:40.580Z,6.72
2022-10-28T21:52:12.863Z,4.78
2022-10-28T21:54:45.184Z,5.13
2022-10-28T21:57:17.530Z,5.32
2022-10-28T21:59:50.533Z,5.28
2022-10-28T22:02:22.937Z,5.10
2022-10-28T22:04:55.303Z,4.82
2022-10-28T22:07:27.576Z,4.72
2022-10-28T22:09:59.912Z,4.38
2022-10-28T22:12:32.222Z,4.00
2022-10-28T22:15:06.484Z,3.90
2022-10-28T22:17:39.036Z,3.28
2022-10-28T22:20:11.351Z,3.35
2022-10-28T22:22:43.671Z,3.33
2022-10-28T22:25:16.057Z,3.00
2022-10-28T22:27:48.317Z,3.88
2022-10-28T22:30:21.268Z,3.28
2022-10-28T22:32:53.800Z,3.22
2022-10-28T22:35:26.202Z,4.50
2022-10-28T22:37:58.547Z,4.68
2022-10-28T22:40:30.932Z,4.13
2022-10-28T22:43:03.264Z,4.25
2022-10-28T22:45:36.214Z,4.00
2022-10-28T22:48:08.853Z,3.88
2022-10-28T22:50:42.299Z,3.45
2022-10-28T22:53:14.592Z,3.90
2022-10-28T22:55:47.642Z,4.97
2022-10-28T22:58:20.297Z,7.15
2022-10-28T23:00:53.461Z,6.15
2022-10-28T23:03:25.775Z,6.53
2022-10-28T23:05:58.068Z,6.00
2022-10-28T23:08:30.393Z,4.53
2022-10-28T23:11:02.706Z,6.30
2022-10-28T23:16:15.335Z,5.10
2022-10-28T23:18:48.082Z,3.88
2022-10-28T23:21:21.925Z,3.88
2022-10-28T23:23:55.359Z,3.60
2022-10-28T23:26:28.732Z,3.35
2022-10-28T23:29:01.046Z,3.70
2022-10-28T23:31:34.047Z,3.53
2022-10-28T23:34:06.473Z,3.90
2022-10-28T23:36:39.418Z,4.03
2022-10-28T23:39:11.755Z,3.65
2022-10-28T23:41:44.029Z,3.72
2022-10-28T23:44:16.287Z,4.43
2022-10-28T23:46:49.748Z,4.43
2022-10-28T23:49:22.039Z,4.63
2022-10-28T23:51:54.362Z,3.75
2022-10-28T23:54:26.704Z,5.13
2022-10-28T23:56:59.041Z,7.97
2022-10-28T23:59:31.400Z,7.75
